Time;durP1;ratioP1;P1;durP2;ratioP2;P2;SDS_P1;SDS_P2;PMS_P1;PMS_P2;Temp;Humidity;BMP_temperature;BMP_pressure;BME280_temperature;BME280_humidity;BME280_pressure;Samples;Min_cycle;Max_cycle;Signal;HPM_P1;HPM_P2
2022/03/09 00:00:38;;;;;;;4.15;1.75;;;;;;;-4.15;43.22;99998.84;5032500;28;20136;-42
2022/03/09 00:03:04;;;;;;;6.72;2.03;;;;;;;-4.17;43.15;100005.56;5033420;28;20072;-40
2022/03/09 00:05:29;;;;;;;5.68;2.45;;;;;;;-4.21;43.11;100010.50;5019549;28;20041;-41
2022/03/09 00:07:55;;;;;;;4.00;1.83;;;;;;;-4.23;43.24;100002.84;5030899;28;20048;-41
2022/03/09 00:10:21;;;;;;;4.20;1.73;;;;;;;-4.25;42.94;100007.03;5015905;28;20144;-40
2022/03/09 00:12:46;;;;;;;4.30;1.85;;;;;;;-4.26;43.81;100002.75;5033163;28;20119;-42
2022/03/09 00:15:12;;;;;;;4.28;2.30;;;;;;;-4.25;43.82;100008.69;5032272;28;20041;-43
2022/03/09 00:17:38;;;;;;;11.10;5.82;;;;;;;-4.25;43.33;100003.63;5033123;28;20087;-41
2022/03/09 00:20:06;;;;;;;4.97;2.30;;;;;;;-4.31;43.43;100011.91;5033288;28;20037;-41
2022/03/09 00:22:32;;;;;;;6.03;2.03;;;;;;;-4.36;43.54;100008.38;5032144;28;20135;-41
2022/03/09 00:24:57;;;;;;;4.90;2.35;;;;;;;-4.43;42.97;100014.94;5033431;28;20037;-41
2022/03/09 00:27:23;;;;;;;4.63;2.08;;;;;;;-4.50;43.31;100007.94;5031125;28;20048;-40
2022/03/09 00:29:49;;;;;;;5.28;2.00;;;;;;;-4.52;43.72;100021.41;5048465;28;20140;-41
2022/03/09 00:32:14;;;;;;;5.15;2.10;;;;;;;-4.57;43.22;100018.72;5033204;28;20099;-41
2022/03/09 00:34:40;;;;;;;3.95;2.05;;;;;;;-4.63;44.21;100023.59;5032074;28;20124;-41
2022/03/09 00:37:06;;;;;;;3.95;2.47;;;;;;;-4.71;43.55;100014.91;5032510;28;20072;-45
2022/03/09 00:39:32;;;;;;;3.67;2.08;;;;;;;-4.78;44.12;100026.53;5032842;28;20072;-41
2022/03/09 00:41:59;;;;;;;5.20;1.98;;;;;;;-4.90;43.91;100022.72;5033042;28;20064;-41
2022/03/09 00:44:25;;;;;;;3.58;2.20;;;;;;;-5.00;43.96;100028.31;5030934;28;20516;-41
2022/03/09 00:46:50;;;;;;;5.32;2.33;;;;;;;-5.10;44.70;100034.75;5031448;28;20480;-42
2022/03/09 00:49:16;;;;;;;4.28;2.00;;;;;;;-5.18;44.53;100034.47;5032444;28;20136;-41
2022/03/09 00:51:42;;;;;;;6.60;2.03;;;;;;;-5.28;45.05;100027.38;5032189;28;20046;-41
2022/03/09 00:54:07;;;;;;;5.32;2.20;;;;;;;-5.37;44.80;100034.66;5030985;28;20049;-40
2022/03/09 00:56:34;;;;;;;4.93;2.25;;;;;;;-5.47;44.95;100031.75;5031571;28;20049;-45
2022/03/09 00:58:59;;;;;;;3.72;1.92;;;;;;;-5.56;44.77;100027.25;5047953;28;20045;-41
2022/03/09 01:01:25;;;;;;;6.97;2.53;;;;;;;-5.74;44.44;100014.78;5031500;28;20095;-41
2022/03/09 01:03:51;;;;;;;4.60;2.00;;;;;;;-5.70;44.77;100026.75;5032135;28;20045;-42
2022/03/09 01:06:16;;;;;;;6.93;2.30;;;;;;;-5.78;44.74;100022.22;5020824;28;20417;-42
2022/03/09 01:08:42;;;;;;;5.97;2.35;;;;;;;-5.95;44.67;99998.00;5011448;28;20041;-42
2022/03/09 01:11:09;;;;;;;5.95;2.60;;;;;;;-5.87;44.96;100027.00;5012714;28;20460;-41
2022/03/09 01:13:35;;;;;;;4.38;2.00;;;;;;;-5.92;45.13;100018.38;5023841;28;20136;-41
2022/03/09 01:16:01;;;;;;;12.45;2.00;;;;;;;-5.97;44.99;100035.06;5031734;28;20467;-42
2022/03/09 01:18:27;;;;;;;6.00;2.30;;;;;;;-6.05;45.23;100030.56;5032296;28;20049;-40
2022/03/09 01:20:53;;;;;;;7.00;2.15;;;;;;;-6.10;45.69;100029.53;5030686;28;20044;-41
2022/03/09 01:23:19;;;;;;;6.13;2.40;;;;;;;-6.25;45.53;100023.03;5012168;28;20049;-41
2022/03/09 01:25:45;;;;;;;5.63;2.42;;;;;;;-6.30;45.94;100025.41;5012424;28;20429;-40
2022/03/09 01:28:10;;;;;;;7.28;2.45;;;;;;;-6.23;46.15;100050.13;5031475;28;20049;-41
2022/03/09 01:30:36;;;;;;;7.10;2.60;;;;;;;-6.21;46.04;100052.69;5032253;28;20077;-41
2022/03/09 01:33:02;;;;;;;6.95;2.75;;;;;;;-6.21;45.94;100055.25;5031123;28;20048;-40
2022/03/09 01:35:28;;;;;;;8.15;2.92;;;;;;;-6.37;45.92;100033.56;5047281;28;20432;-40
2022/03/09 01:37:53;;;;;;;10.23;2.95;;;;;;;-6.27;46.09;100060.06;5030943;28;20049;-42
2022/03/09 01:40:19;;;;;;;7.85;2.47;;;;;;;-6.36;45.81;100042.00;5030639;28;20513;-43
2022/03/09 01:42:45;;;;;;;6.53;2.60;;;;;;;-6.33;45.91;100059.84;5030696;28;20041;-41
2022/03/09 01:45:13;;;;;;;4.88;2.55;;;;;;;-6.39;46.19;100064.66;5031904;28;20048;-40
2022/03/09 01:47:39;;;;;;;6.00;2.30;;;;;;;-6.49;46.28;100039.00;5031504;28;20077;-41
2022/03/09 01:50:08;;;;;;;5.30;2.50;;;;;;;-6.48;46.77;100057.56;5031595;28;20539;-41
2022/03/09 01:52:35;;;;;;;8.60;2.88;;;;;;;-6.54;46.41;100059.88;5025176;28;20102;-42
2022/03/09 01:55:00;;;;;;;6.45;2.65;;;;;;;-6.56;46.65;100062.34;5031254;28;20083;-40
2022/03/09 01:57:29;;;;;;;6.47;2.72;;;;;;;-6.72;46.80;100042.31;5029653;28;20076;-42
2022/03/09 01:59:55;;;;;;;5.40;2.75;;;;;;;-6.62;47.06;100072.19;5031473;28;20541;-41
2022/03/09 02:02:21;;;;;;;8.05;2.95;;;;;;;-6.64;47.68;100071.25;5030320;28;20049;-41
2022/03/09 02:04:46;;;;;;;4.57;2.20;;;;;;;-6.77;46.90;100056.41;5023018;28;20042;-41
2022/03/09 02:07:12;;;;;;;6.15;3.08;;;;;;;-6.72;47.38;100070.09;5018535;28;20033;-41
2022/03/09 02:09:41;;;;;;;7.75;2.55;;;;;;;-6.75;47.57;100075.03;5029588;28;20050;-40
2022/03/09 02:12:11;;;;;;;6.65;2.55;;;;;;;-6.75;47.48;100075.03;5031648;28;20037;-40
2022/03/09 02:14:44;;;;;;;6.22;2.60;;;;;;;-6.73;47.38;100075.09;5030766;28;20049;-40
2022/03/09 02:17:15;;;;;;;6.57;2.80;;;;;;;-6.76;47.15;100080.91;5030267;28;20076;-42
2022/03/09 02:19:43;;;;;;;9.65;3.00;;;;;;;-6.83;46.98;100081.44;5031505;28;20060;-40
2022/03/09 02:22:27;;;;;;;4.15;2.63;;;;;;;-6.87;47.52;100089.72;5031129;28;20045;-40
2022/03/09 02:24:52;;;;;;;8.63;3.08;;;;;;;-6.91;47.25;100097.97;5030524;28;20041;-41
2022/03/09 02:27:22;;;;;;;4.40;2.22;;;;;;;-6.95;47.28;100101.16;5030892;28;20087;-41
2022/03/09 02:29:51;;;;;;;11.00;2.92;;;;;;;-6.98;47.34;100106.09;5030670;28;20041;-41
2022/03/09 02:32:18;;;;;;;12.63;3.47;;;;;;;-7.01;47.55;100106.81;5029803;28;20045;-42
2022/03/09 02:34:44;;;;;;;5.13;2.78;;;;;;;-7.01;47.21;100105.94;5030765;28;20072;-44
2022/03/09 02:37:10;;;;;;;9.50;4.35;;;;;;;-7.03;47.40;100108.41;5029175;28;20061;-41
2022/03/09 02:39:36;;;;;;;8.68;3.50;;;;;;;-7.12;47.38;100089.50;5030594;28;20057;-41
2022/03/09 02:42:03;;;;;;;7.53;3.10;;;;;;;-7.08;47.78;100114.06;5013045;28;20579;-41
2022/03/09 02:44:29;;;;;;;8.15;3.80;;;;;;;-7.10;47.75;100118.19;5031078;28;20053;-41
2022/03/09 02:46:55;;;;;;;7.00;3.15;;;;;;;-7.10;47.58;100114.00;5030790;28;20428;-42
2022/03/09 02:49:21;;;;;;;6.55;3.05;;;;;;;-7.09;47.55;100117.41;5029303;28;20078;-40
2022/03/09 02:51:47;;;;;;;4.95;2.50;;;;;;;-7.18;47.52;100109.44;5028541;28;20505;-41
2022/03/09 02:54:13;;;;;;;8.77;3.53;;;;;;;-7.30;47.63;100092.97;5030550;28;20045;-40
2022/03/09 02:56:39;;;;;;;6.20;2.95;;;;;;;-7.19;47.49;100123.72;5030385;28;20065;-40
2022/03/09 02:59:04;;;;;;;7.55;2.95;;;;;;;-7.19;47.57;100126.25;5029178;28;20061;-41
2022/03/09 03:01:30;;;;;;;7.00;3.20;;;;;;;-7.32;47.77;100098.72;5030872;28;20393;-41
2022/03/09 03:03:56;;;;;;;6.40;2.50;;;;;;;-7.38;47.59;100104.38;5028891;28;20068;-41
2022/03/09 03:06:22;;;;;;;6.63;2.78;;;;;;;-7.40;48.11;100107.66;5026524;28;20045;-40
2022/03/09 03:08:48;;;;;;;8.00;2.47;;;;;;;-7.35;48.37;100131.44;5030375;28;20048;-41
2022/03/09 03:11:13;;;;;;;4.93;2.33;;;;;;;-7.38;47.87;100121.22;5030548;28;20429;-41
2022/03/09 03:13:40;;;;;;;4.10;2.20;;;;;;;-7.40;48.47;100133.75;5030373;28;20068;-40
2022/03/09 03:16:07;;;;;;;8.25;2.83;;;;;;;-7.44;48.07;100131.91;5030470;28;20042;-40
2022/03/09 03:18:33;;;;;;;7.00;2.70;;;;;;;-7.47;48.18;100133.41;5030113;28;20520;-41
2022/03/09 03:20:59;;;;;;;4.70;2.60;;;;;;;-7.49;48.69;100137.56;5030074;28;20045;-41
2022/03/09 03:23:26;;;;;;;6.90;2.50;;;;;;;-7.54;48.11;100136.50;5028869;28;20044;-40
2022/03/09 03:25:52;;;;;;;6.53;3.22;;;;;;;-7.56;48.17;100135.53;5029107;28;20034;-41
2022/03/09 03:28:19;;;;;;;6.68;3.42;;;;;;;-7.53;48.29;100140.72;5030293;28;20075;-41
2022/03/09 03:30:45;;;;;;;6.57;3.30;;;;;;;-7.53;48.15;100141.56;5029206;28;20060;-40
2022/03/09 03:33:13;;;;;;;7.45;3.10;;;;;;;-7.52;48.02;100148.38;5028706;28;20050;-41
2022/03/09 03:35:38;;;;;;;6.43;3.17;;;;;;;-7.55;48.53;100147.38;5028752;28;20048;-39
2022/03/09 03:38:05;;;;;;;5.43;2.75;;;;;;;-7.64;48.31;100131.81;5028429;28;20049;-41
2022/03/09 03:40:31;;;;;;;9.32;3.00;;;;;;;-7.69;48.47;100126.53;5011685;28;20064;-41
2022/03/09 03:42:56;;;;;;;7.32;3.50;;;;;;;-7.63;49.01;100144.50;5029303;28;20131;-42
2022/03/09 03:45:22;;;;;;;7.05;2.88;;;;;;;-7.64;48.36;100152.00;5029025;28;20127;-40
2022/03/09 03:47:48;;;;;;;6.55;2.70;;;;;;;-7.66;48.74;100151.06;5029950;28;20084;-41
2022/03/09 03:50:14;;;;;;;5.72;2.53;;;;;;;-7.67;48.66;100157.78;5029537;28;20037;-41
2022/03/09 03:52:40;;;;;;;7.28;3.25;;;;;;;-7.66;48.69;100157.00;5029840;28;20513;-41
2022/03/09 03:55:06;;;;;;;6.75;3.33;;;;;;;-7.66;48.66;100153.59;5029869;28;20056;-41
2022/03/09 03:57:32;;;;;;;8.07;3.83;;;;;;;-7.67;48.80;100162.81;5029918;28;20088;-41
2022/03/09 03:59:58;;;;;;;7.57;3.95;;;;;;;-7.69;48.74;100159.34;5028246;28;20504;-42
2022/03/09 04:02:23;;;;;;;5.47;2.65;;;;;;;-7.78;48.27;100151.38;5028454;28;20042;-41
2022/03/09 04:04:50;;;;;;;8.52;2.80;;;;;;;-7.69;48.34;100159.34;5023731;28;20048;-41
2022/03/09 04:07:16;;;;;;;6.80;3.05;;;;;;;-7.69;48.47;100173.66;5013945;28;20540;-41
2022/03/09 04:09:42;;;;;;;8.05;3.30;;;;;;;-7.79;47.97;100155.56;5030945;28;20529;-41
2022/03/09 04:12:08;;;;;;;8.25;3.10;;;;;;;-7.71;48.21;100179.50;5031965;28;20075;-40
2022/03/09 04:14:35;;;;;;;8.05;2.92;;;;;;;-7.83;48.65;100162.91;5033150;28;20045;-41
2022/03/09 04:17:01;;;;;;;5.82;2.83;;;;;;;-7.74;48.50;100181.84;5031707;28;20038;-41
2022/03/09 04:19:27;;;;;;;6.35;3.20;;;;;;;-7.69;48.70;100187.13;5031068;28;20045;-41
2022/03/09 04:21:52;;;;;;;6.30;2.97;;;;;;;-7.63;48.15;100181.47;5014959;28;20509;-41
2022/03/09 04:24:18;;;;;;;6.28;2.97;;;;;;;-7.59;48.16;100186.78;5033119;28;20088;-42
2022/03/09 04:26:44;;;;;;;8.13;3.03;;;;;;;-7.56;48.37;100194.47;5031921;28;20038;-41
2022/03/09 04:29:10;;;;;;;5.70;2.80;;;;;;;-7.53;47.87;100193.72;5032420;28;20041;-41
2022/03/09 04:31:36;;;;;;;5.65;2.88;;;;;;;-7.50;47.44;100204.84;5033006;28;20124;-41
2022/03/09 04:34:02;;;;;;;5.97;2.97;;;;;;;-7.61;48.43;100184.97;5032958;28;20056;-41
2022/03/09 04:36:28;;;;;;;6.72;2.90;;;;;;;-7.52;47.65;100205.56;5032932;28;20033;-41
2022/03/09 04:38:54;;;;;;;14.30;3.40;;;;;;;-7.46;47.63;100208.38;5032199;28;20053;-41
2022/03/09 04:41:20;;;;;;;9.48;3.35;;;;;;;-7.49;47.89;100200.66;5032633;28;20033;-42
2022/03/09 04:43:46;;;;;;;10.10;3.05;;;;;;;-7.51;47.98;100195.53;5032279;28;20038;-41
2022/03/09 04:46:11;;;;;;;8.48;2.97;;;;;;;-7.45;47.44;100213.50;5031384;28;20040;-41
2022/03/09 04:48:37;;;;;;;7.85;3.15;;;;;;;-7.47;47.80;100214.22;5031251;28;20088;-41
2022/03/09 04:51:04;;;;;;;7.85;3.03;;;;;;;-7.49;47.76;100214.16;5031109;28;20117;-41
2022/03/09 04:53:31;;;;;;;8.55;2.40;;;;;;;-7.51;48.21;100215.75;5031025;28;20041;-41
2022/03/09 04:55:57;;;;;;;8.82;3.22;;;;;;;-7.50;47.97;100220.00;5031753;28;20089;-41
2022/03/09 04:58:24;;;;;;;7.35;2.60;;;;;;;-7.49;47.97;100223.38;5031347;28;20045;-42
2022/03/09 05:00:51;;;;;;;11.02;3.40;;;;;;;-7.47;48.19;100230.22;5031389;28;20116;-41
2022/03/09 05:03:17;;;;;;;8.57;3.35;;;;;;;-7.40;48.01;100228.84;5032394;28;20120;-40
2022/03/09 05:05:42;;;;;;;9.85;3.38;;;;;;;-7.43;47.52;100203.47;5030874;28;20128;-41
2022/03/09 05:08:09;;;;;;;8.40;3.00;;;;;;;-7.26;47.43;100235.38;5031933;28;20037;-41
2022/03/09 05:10:36;;;;;;;6.63;2.60;;;;;;;-7.23;47.21;100235.53;5030278;28;20111;-41
2022/03/09 05:13:02;;;;;;;8.30;2.83;;;;;;;-7.22;46.96;100223.78;5030724;28;20037;-42
2022/03/09 05:15:28;;;;;;;8.52;3.33;;;;;;;-7.24;47.11;100216.13;5030861;28;20091;-42
2022/03/09 05:17:53;;;;;;;6.57;3.15;;;;;;;-7.08;47.02;100235.34;5013180;28;20045;-42
2022/03/09 05:20:22;;;;;;;5.80;2.40;;;;;;;-7.02;46.92;100240.69;5012836;28;20558;-42
2022/03/09 05:22:49;;;;;;;9.65;3.42;;;;;;;-7.10;46.63;100216.72;5031069;28;20460;-42
2022/03/09 05:25:15;;;;;;;9.05;3.08;;;;;;;-6.93;46.35;100249.53;5028944;28;20048;-43
2022/03/09 05:27:41;;;;;;;9.90;3.47;;;;;;;-6.89;46.30;100240.41;5028551;28;20109;-42
2022/03/09 05:30:09;;;;;;;9.43;3.25;;;;;;;-6.78;46.09;100241.72;5030004;28;20042;-42
2022/03/09 05:32:35;;;;;;;7.70;3.40;;;;;;;-6.75;46.02;100224.16;5028283;28;20037;-41
2022/03/09 05:35:05;;;;;;;11.27;3.10;;;;;;;-6.62;45.84;100234.00;5029705;28;20520;-42
2022/03/09 05:37:42;;;;;;;8.93;3.10;;;;;;;-6.42;45.42;100250.03;5030759;28;20048;-42
2022/03/09 05:40:09;;;;;;;10.60;3.10;;;;;;;-6.30;45.32;100247.16;5031057;28;20197;-41
2022/03/09 05:42:35;;;;;;;6.72;3.22;;;;;;;-6.23;44.81;100246.59;5028709;28;20045;-41
2022/03/09 05:45:02;;;;;;;8.20;3.38;;;;;;;-6.10;45.19;100254.75;5041279;28;20045;-43
2022/03/09 05:47:28;;;;;;;8.82;3.05;;;;;;;-5.83;44.51;100260.03;5027563;28;20535;-41
2022/03/09 05:49:53;;;;;;;10.15;3.65;;;;;;;-5.40;43.78;100257.50;5025197;28;20049;-42
2022/03/09 05:52:19;;;;;;;9.88;3.28;;;;;;;-4.81;43.27;100256.28;5014873;28;20045;-41
2022/03/09 05:54:45;;;;;;;7.03;3.20;;;;;;;-3.94;41.56;100263.56;5030692;28;20072;-43
2022/03/09 05:57:12;;;;;;;7.57;3.10;;;;;;;-2.98;40.46;100265.69;5031082;28;20069;-43
2022/03/09 05:59:38;;;;;;;9.93;3.80;;;;;;;-2.12;38.54;100268.06;5031371;28;20049;-44
2022/03/09 06:02:05;;;;;;;8.75;3.67;;;;;;;-1.35;37.16;100269.94;5031290;28;20119;-42
2022/03/09 06:04:30;;;;;;;12.32;3.83;;;;;;;-0.43;35.73;100270.16;5030646;28;20116;-41
2022/03/09 06:06:56;;;;;;;8.40;4.00;;;;;;;0.42;34.68;100269.94;5031208;28;20099;-41
2022/03/09 06:09:23;;;;;;;12.27;3.78;;;;;;;1.24;33.21;100294.19;5023100;28;20036;-41
2022/03/09 06:11:49;;;;;;;6.35;3.15;;;;;;;1.53;32.46;100302.19;5031410;28;20068;-41
2022/03/09 06:14:16;;;;;;;7.45;3.38;;;;;;;2.07;32.03;100298.53;5013294;28;20049;-42
2022/03/09 06:16:42;;;;;;;7.95;4.13;;;;;;;2.76;30.86;100295.69;4996835;28;20041;-40
2022/03/09 06:19:08;;;;;;;9.63;3.70;;;;;;;3.55;29.36;100293.53;5035623;28;20129;-40
2022/03/09 06:21:33;;;;;;;10.13;3.83;;;;;;;4.11;29.05;100278.22;5037067;28;20045;-41
2022/03/09 06:23:59;;;;;;;10.07;4.13;;;;;;;4.81;28.44;100293.69;5028713;28;20039;-40
2022/03/09 06:26:25;;;;;;;7.63;3.92;;;;;;;5.32;27.87;100282.38;5028747;28;20095;-40
2022/03/09 06:28:50;;;;;;;8.73;3.85;;;;;;;5.68;27.06;100273.63;5030307;28;20099;-39
2022/03/09 06:31:16;;;;;;;10.43;4.57;;;;;;;5.99;26.31;100283.81;5012252;28;20033;-40
2022/03/09 06:33:42;;;;;;;10.70;4.35;;;;;;;6.28;25.95;100276.75;5030082;28;20091;-41
2022/03/09 06:36:08;;;;;;;12.27;4.85;;;;;;;6.62;25.40;100285.91;5030727;28;20513;-40
2022/03/09 06:38:34;;;;;;;10.93;5.00;;;;;;;7.10;24.96;100271.66;5031144;28;20071;-41
2022/03/09 06:40:59;;;;;;;9.98;4.68;;;;;;;7.57;24.49;100255.56;5030623;28;20033;-41
2022/03/09 06:43:25;;;;;;;10.73;4.60;;;;;;;8.29;24.11;100286.47;5032477;28;20049;-41
2022/03/09 06:45:52;;;;;;;10.32;5.00;;;;;;;8.67;23.62;100292.78;5029444;28;20044;-39
2022/03/09 06:48:17;;;;;;;9.60;4.80;;;;;;;8.91;22.92;100300.13;5029305;28;20049;-40
2022/03/09 06:50:43;;;;;;;10.77;4.60;;;;;;;9.05;22.25;100297.31;5030727;28;20042;-39
2022/03/09 06:53:10;;;;;;;23.75;8.27;;;;;;;9.23;21.97;100296.97;5028826;28;20161;-41
2022/03/09 06:55:36;;;;;;;10.40;5.40;;;;;;;9.18;21.72;100289.25;5015131;28;20049;-40
2022/03/09 06:58:03;;;;;;;12.13;5.68;;;;;;;9.45;21.55;100300.00;5028072;28;20041;-40
2022/03/09 07:00:29;;;;;;;12.32;4.95;;;;;;;9.71;21.16;100298.59;5029283;28;20049;-40
2022/03/09 07:02:56;;;;;;;10.07;5.22;;;;;;;10.01;20.81;100296.19;5029109;28;20126;-41
2022/03/09 07:05:23;;;;;;;13.00;4.95;;;;;;;10.47;21.17;100294.28;5028733;28;20145;-40
2022/03/09 07:07:49;;;;;;;13.35;5.43;;;;;;;10.80;20.76;100286.53;5027951;28;20070;-39
2022/03/09 07:10:17;;;;;;;14.13;5.50;;;;;;;11.08;20.01;100284.94;5027994;28;20037;-39
2022/03/09 07:12:45;;;;;;;8.45;4.80;;;;;;;11.14;19.38;100283.91;5030881;28;20091;-39
2022/03/09 07:15:10;;;;;;;10.63;5.65;;;;;;;11.44;19.06;100298.69;5029121;28;20480;-39
2022/03/09 07:17:37;;;;;;;10.50;5.60;;;;;;;11.58;19.52;100285.25;5026732;28;20147;-40
2022/03/09 07:20:03;;;;;;;12.68;5.80;;;;;;;11.81;19.20;100291.56;5028451;28;20128;-39
2022/03/09 07:22:28;;;;;;;9.63;5.15;;;;;;;12.32;18.53;100288.25;5026796;28;20645;-39
2022/03/09 07:24:54;;;;;;;10.93;5.30;;;;;;;12.49;18.25;100282.47;5033506;28;20049;-39
2022/03/09 07:27:20;;;;;;;9.15;5.13;;;;;;;12.56;17.96;100291.81;5040952;28;20063;-38
2022/03/09 07:29:45;;;;;;;10.05;4.57;;;;;;;12.81;17.85;100289.25;5035390;28;20091;-39
2022/03/09 07:32:14;;;;;;;10.82;5.65;;;;;;;13.29;17.90;100284.13;5044200;28;20132;-40
2022/03/09 07:34:40;;;;;;;12.60;5.20;;;;;;;13.69;17.20;100289.59;5027950;28;20045;-39
2022/03/09 07:37:06;;;;;;;14.98;9.23;;;;;;;14.10;16.69;100288.00;5030045;28;20045;-40
2022/03/09 07:39:32;;;;;;;11.80;4.90;;;;;;;14.29;16.36;100290.72;5033420;28;20042;-40
2022/03/09 07:41:58;;;;;;;12.70;5.95;;;;;;;14.47;16.42;100276.94;5032738;28;20048;-41
2022/03/09 07:44:25;;;;;;;10.90;5.72;;;;;;;14.62;16.22;100289.41;5032605;28;20037;-40
2022/03/09 07:46:51;;;;;;;9.07;5.15;;;;;;;14.54;16.27;100290.66;5032714;28;20065;-38
2022/03/09 07:49:18;;;;;;;12.50;5.20;;;;;;;14.76;16.63;100287.06;5032127;28;21731;-39
2022/03/09 07:51:45;;;;;;;10.80;5.05;;;;;;;14.78;16.33;100282.63;5033911;28;20127;-39
2022/03/09 07:54:11;;;;;;;15.23;5.95;;;;;;;14.61;16.13;100273.75;5032239;28;20044;-40
2022/03/09 07:56:37;;;;;;;11.50;4.60;;;;;;;14.97;16.37;100289.72;5033588;28;20053;-40
2022/03/09 07:59:04;;;;;;;10.40;4.63;;;;;;;14.78;16.26;100279.16;5033174;28;20076;-40
2022/03/09 08:01:30;;;;;;;10.15;4.57;;;;;;;14.27;16.11;100295.19;5033809;28;20037;-40
2022/03/09 08:03:56;;;;;;;8.88;4.45;;;;;;;14.08;16.16;100275.91;5032252;28;20041;-40
2022/03/09 08:06:22;;;;;;;10.48;4.35;;;;;;;14.09;16.07;100291.50;5033174;28;20041;-38
2022/03/09 08:08:47;;;;;;;12.18;5.13;;;;;;;14.25;15.91;100292.63;5033123;28;20049;-40
2022/03/09 08:11:13;;;;;;;7.40;4.60;;;;;;;14.46;15.64;100293.56;5033531;28;20052;-40
2022/03/09 08:13:39;;;;;;;11.32;4.00;;;;;;;14.56;15.41;100271.34;5033268;28;20041;-39
2022/03/09 08:16:06;;;;;;;7.53;3.75;;;;;;;14.66;15.46;100285.75;5031352;28;20033;-40
2022/03/09 08:18:33;;;;;;;6.97;4.10;;;;;;;14.60;15.27;100291.22;5032502;28;20045;-39
2022/03/09 08:20:58;;;;;;;7.97;3.97;;;;;;;14.51;15.38;100301.22;5032692;28;20064;-39
2022/03/09 08:23:24;;;;;;;8.23;5.05;;;;;;;14.49;15.12;100292.59;5032718;28;20037;-41
2022/03/09 08:25:51;;;;;;;11.77;7.90;;;;;;;14.98;14.70;100297.47;5032705;28;20037;-40
2022/03/09 08:28:17;;;;;;;5.22;3.50;;;;;;;14.97;14.52;100294.94;5032623;28;20521;-38
2022/03/09 08:30:43;;;;;;;6.53;2.95;;;;;;;15.09;14.49;100295.25;5032676;28;20041;-47
2022/03/09 08:33:09;;;;;;;11.60;3.17;;;;;;;15.38;14.44;100296.63;5032672;28;20053;-39
2022/03/09 08:35:35;;;;;;;8.48;3.50;;;;;;;15.34;14.42;100287.16;5032248;28;20473;-38
2022/03/09 08:38:01;;;;;;;6.68;3.70;;;;;;;15.39;13.93;100300.06;5031471;28;20112;-40
2022/03/09 08:40:27;;;;;;;5.68;3.30;;;;;;;15.35;14.17;100295.88;5032858;28;20064;-39
2022/03/09 08:42:52;;;;;;;4.38;2.78;;;;;;;15.26;13.60;100286.69;5032908;28;20165;-39
2022/03/09 08:45:18;;;;;;;6.10;3.33;;;;;;;15.21;13.83;100302.59;5031344;28;20044;-40
2022/03/09 08:47:44;;;;;;;8.02;3.30;;;;;;;15.55;13.84;100301.97;5032885;28;20116;-39
2022/03/09 08:50:10;;;;;;;7.43;3.58;;;;;;;15.71;13.90;100304.75;5032281;28;20045;-40
2022/03/09 08:52:36;;;;;;;7.07;3.22;;;;;;;15.99;13.79;100297.34;5031360;28;20041;-39
2022/03/09 08:55:03;;;;;;;5.13;3.17;;;;;;;16.07;13.16;100310.94;5031843;28;20054;-39
2022/03/09 08:57:29;;;;;;;6.88;3.50;;;;;;;15.71;13.31;100304.75;5032695;28;20041;-40
2022/03/09 08:59:57;;;;;;;7.38;3.38;;;;;;;15.63;13.50;100306.88;5031277;28;20045;-41
2022/03/09 09:02:24;;;;;;;8.07;4.18;;;;;;;16.17;13.65;100297.41;5032558;28;20037;-39
2022/03/09 09:04:50;;;;;;;19.92;8.45;;;;;;;16.65;13.29;100305.53;5031136;28;20390;-40
2022/03/09 09:07:16;;;;;;;5.65;3.13;;;;;;;16.90;12.69;100313.88;5031120;28;20544;-40
2022/03/09 09:09:42;;;;;;;5.38;3.20;;;;;;;17.48;12.65;100312.69;5032026;28;20041;-39
2022/03/09 09:12:07;;;;;;;6.63;2.88;;;;;;;17.62;12.35;100312.84;5032482;28;20037;-39
2022/03/09 09:14:33;;;;;;;6.63;3.70;;;;;;;17.72;12.09;100319.31;5032231;28;20132;-39
2022/03/09 09:16:59;;;;;;;4.60;3.10;;;;;;;17.64;12.10;100313.59;5010635;28;20381;-40
2022/03/09 09:19:25;;;;;;;5.90;3.53;;;;;;;17.79;11.90;100313.63;5012522;28;20129;-40
2022/03/09 09:21:50;;;;;;;6.13;3.03;;;;;;;18.01;11.88;100318.56;5012273;28;20120;-39
2022/03/09 09:24:16;;;;;;;4.53;2.72;;;;;;;17.82;11.70;100306.50;5014009;28;20492;-40
2022/03/09 09:26:42;;;;;;;6.95;2.78;;;;;;;17.93;12.00;100323.41;5030338;28;20041;-39
2022/03/09 09:29:09;;;;;;;4.80;3.38;;;;;;;18.11;11.78;100311.88;5031472;28;20033;-39
2022/03/09 09:31:34;;;;;;;7.70;3.80;;;;;;;18.27;11.77;100322.38;5031575;28;20069;-40
2022/03/09 09:34:02;;;;;;;5.05;2.97;;;;;;;18.37;11.64;100325.38;5046549;28;20068;-40
2022/03/09 09:36:27;;;;;;;6.15;3.15;;;;;;;18.39;11.46;100315.59;5030180;28;20037;-40
2022/03/09 09:38:53;;;;;;;8.45;2.80;;;;;;;18.14;11.52;100326.66;5031718;28;20087;-40
2022/03/09 09:41:24;;;;;;;6.35;2.90;;;;;;;17.83;11.38;100324.84;5030068;28;20049;-40
2022/03/09 09:43:50;;;;;;;3.70;2.55;;;;;;;17.75;11.59;100314.72;5030236;28;20131;-39
2022/03/09 09:46:16;;;;;;;9.00;2.85;;;;;;;17.85;11.49;100328.22;5031383;28;20041;-40
2022/03/09 09:48:45;;;;;;;6.03;2.80;;;;;;;17.92;11.49;100331.38;5047033;28;20086;-39
2022/03/09 09:51:12;;;;;;;5.60;2.50;;;;;;;18.23;11.46;100325.28;5014077;28;20536;-40
2022/03/09 09:53:45;;;;;;;4.18;2.88;;;;;;;18.72;11.11;100331.31;5030087;28;20475;-40
2022/03/09 09:56:13;;;;;;;4.35;2.85;;;;;;;18.76;10.98;100331.03;5030873;28;20057;-39
2022/03/09 09:58:42;;;;;;;4.50;3.13;;;;;;;18.73;11.03;100330.38;5031417;28;20060;-40
2022/03/09 10:01:09;;;;;;;3.85;2.65;;;;;;;18.74;11.00;100332.91;5030559;28;20053;-39
2022/03/09 10:03:35;;;;;;;5.10;2.65;;;;;;;18.88;11.15;100326.84;5030037;28;20460;-39
2022/03/09 10:06:01;;;;;;;3.50;2.40;;;;;;;19.03;10.89;100323.31;5031060;28;20060;-39
2022/03/09 10:08:27;;;;;;;5.07;2.63;;;;;;;19.23;10.80;100332.66;5030087;28;20041;-40
2022/03/09 10:11:01;;;;;;;3.30;2.22;;;;;;;19.18;10.56;100343.50;5029685;28;20045;-40
2022/03/09 10:13:29;;;;;;;6.63;2.85;;;;;;;19.02;10.77;100342.69;5031017;28;20100;-39
2022/03/09 10:16:20;;;;;;;4.38;2.55;;;;;;;19.32;10.75;100340.88;5030673;28;20037;-40
2022/03/09 10:18:56;;;;;;;8.82;4.30;;;;;;;19.12;10.47;100340.38;5029859;28;20060;-40
2022/03/09 10:21:28;;;;;;;4.75;3.00;;;;;;;19.02;10.57;100348.81;5030303;28;20124;-39
2022/03/09 10:24:01;;;;;;;4.18;3.00;;;;;;;18.66;10.54;100339.56;5013232;28;20041;-40
2022/03/09 10:26:34;;;;;;;5.38;2.78;;;;;;;18.30;10.72;100348.56;5030375;28;20033;-39
2022/03/09 10:29:07;;;;;;;6.53;4.20;;;;;;;18.41;10.83;100347.97;5029623;28;20075;-40
2022/03/09 10:31:42;;;;;;;3.65;2.47;;;;;;;18.51;10.82;100342.09;5030332;28;20049;-39
2022/03/09 10:34:15;;;;;;;5.40;3.15;;;;;;;18.70;10.72;100349.81;5029043;28;20083;-39
2022/03/09 10:37:01;;;;;;;7.65;3.15;;;;;;;18.75;11.02;100357.47;5029662;28;20041;-40
2022/03/09 10:39:29;;;;;;;5.97;2.90;;;;;;;18.93;10.87;100359.06;5028931;28;20820;-39
2022/03/09 10:41:55;;;;;;;5.38;3.00;;;;;;;19.01;11.03;100355.03;5029840;28;20041;-39
2022/03/09 10:44:42;;;;;;;4.50;2.53;;;;;;;18.76;10.83;100357.38;5030582;28;20041;-40
2022/03/09 10:47:08;;;;;;;5.75;3.20;;;;;;;18.75;11.04;100360.09;5029283;28;20032;-40
2022/03/09 10:49:34;;;;;;;4.38;3.30;;;;;;;18.75;10.88;100374.13;5029237;28;20115;-39
2022/03/09 10:52:00;;;;;;;6.65;3.75;;;;;;;18.74;10.73;100361.03;5029538;28;20041;-40
2022/03/09 10:54:28;;;;;;;4.80;2.50;;;;;;;18.93;10.63;100349.38;5028745;28;20049;-39
2022/03/09 10:57:09;;;;;;;3.40;2.20;;;;;;;18.63;10.50;100358.19;5028410;28;20529;-39
2022/03/09 10:59:49;;;;;;;3.78;2.67;;;;;;;18.37;10.52;100357.81;5029449;28;20045;-39
2022/03/09 11:02:22;;;;;;;3.58;2.35;;;;;;;18.48;10.65;100357.19;5029894;28;20059;-39
2022/03/09 11:05:09;;;;;;;4.13;2.65;;;;;;;18.86;10.47;100365.59;5030522;28;20049;-40
2022/03/09 11:07:36;;;;;;;3.72;2.38;;;;;;;18.87;10.55;100360.25;5030349;28;20037;-40
2022/03/09 11:10:06;;;;;;;3.70;2.08;;;;;;;18.87;10.67;100355.00;5030011;28;20041;-39
2022/03/09 11:12:32;;;;;;;3.00;2.38;;;;;;;18.88;10.73;100364.59;5031061;28;20527;-39
2022/03/09 11:14:58;;;;;;;5.13;2.53;;;;;;;18.70;10.58;100363.00;5033199;28;20045;-39
2022/03/09 11:17:24;;;;;;;3.00;2.45;;;;;;;18.63;10.81;100365.13;5034233;28;20398;-40
2022/03/09 11:19:50;;;;;;;8.85;3.40;;;;;;;18.45;10.86;100360.03;5034416;28;20215;-39
2022/03/09 11:22:17;;;;;;;6.65;4.07;;;;;;;18.26;10.85;100352.31;5033547;28;20095;-40